createdAt,value
2023-03-17T00:01:54.950Z,64.58
2023-03-17T00:04:24.361Z,65.08
2023-03-17T00:06:51.904Z,65.77
2023-03-17T00:09:20.173Z,65.94
2023-03-17T00:11:47.524Z,64.87
2023-03-17T00:14:14.682Z,65.38
2023-03-17T00:16:45.055Z,64.78
2023-03-17T00:19:17.419Z,64.89
2023-03-17T00:21:46.176Z,64.90
2023-03-17T00:24:15.010Z,64.50
2023-03-17T00:26:43.392Z,63.80
2023-03-17T00:29:10.951Z,64.50
2023-03-17T00:31:39.593Z,65.81
2023-03-17T00:34:08.097Z,64.62
2023-03-17T00:36:35.882Z,65.05
2023-03-17T00:39:03.711Z,65.08
2023-03-17T00:41:30.593Z,64.57
2023-03-17T00:43:57.483Z,64.23
2023-03-17T00:46:27.640Z,64.00
2023-03-17T00:48:55.359Z,64.00
2023-03-17T00:51:23.499Z,64.54
2023-03-17T00:53:50.434Z,64.93
2023-03-17T00:56:19.654Z,65.44
2023-03-17T00:58:47.592Z,65.16
2023-03-17T01:01:16.126Z,65.12
2023-03-17T01:03:43.065Z,65.22
2023-03-17T01:06:12.751Z,65.45
2023-03-17T01:08:41.037Z,65.17
2023-03-17T01:11:16.194Z,65.61
2023-03-17T01:13:42.950Z,64.33
2023-03-17T01:16:11.365Z,64.11
2023-03-17T01:18:39.785Z,64.20
2023-03-17T01:21:06.755Z,64.55
2023-03-17T01:23:34.005Z,64.56
2023-03-17T01:26:00.881Z,64.90
2023-03-17T01:28:28.307Z,66.10
2023-03-17T01:30:55.640Z,66.89
2023-03-17T01:33:22.472Z,65.76
2023-03-17T01:35:50.651Z,65.88
2023-03-17T01:38:17.772Z,65.74
2023-03-17T01:40:49.597Z,66.16
2023-03-17T01:43:19.570Z,66.26
2023-03-17T01:46:17.397Z,67.56
2023-03-17T01:48:49.013Z,67.67
2023-03-17T01:51:21.047Z,67.39
2023-03-17T01:53:51.223Z,66.19
2023-03-17T01:56:19.688Z,65.61
2023-03-17T01:58:52.121Z,66.29
2023-03-17T02:01:21.247Z,64.97
2023-03-17T02:03:48.646Z,66.03
2023-03-17T02:06:16.123Z,66.09
2023-03-17T02:08:44.248Z,66.80
2023-03-17T02:11:11.052Z,67.56
2023-03-17T02:13:41.902Z,67.71
2023-03-17T02:16:16.057Z,67.96
2023-03-17T02:18:43.453Z,67.64
2023-03-17T02:21:27.867Z,66.73
2023-03-17T02:23:56.791Z,66.94
2023-03-17T02:26:26.068Z,66.99
2023-03-17T02:28:53.913Z,66.18
2023-03-17T02:31:21.353Z,66.95
2023-03-17T02:33:48.231Z,66.57
2023-03-17T02:36:15.793Z,66.43
2023-03-17T02:38:45.270Z,67.45
2023-03-17T02:41:12.197Z,66.72
2023-03-17T02:43:39.052Z,67.25
2023-03-17T02:46:05.901Z,67.42
2023-03-17T02:48:36.597Z,67.79
2023-03-17T02:51:03.880Z,68.30
2023-03-17T02:53:31.266Z,68.33
2023-03-17T02:55:58.358Z,69.29
2023-03-17T02:58:25.213Z,69.36
2023-03-17T03:00:51.963Z,69.29
2023-03-17T03:03:18.879Z,69.04
2023-03-17T03:05:45.948Z,69.56
2023-03-17T03:08:12.739Z,69.26
2023-03-17T03:10:39.554Z,68.93
2023-03-17T03:13:06.523Z,69.66
2023-03-17T03:15:33.360Z,70.44
2023-03-17T03:18:00.300Z,70.05
2023-03-17T03:20:27.190Z,69.56
2023-03-17T03:22:53.983Z,69.68
2023-03-17T03:25:21.398Z,69.54
2023-03-17T03:27:48.209Z,69.70
2023-03-17T03:30:15.113Z,70.86
2023-03-17T03:32:41.850Z,70.73
2023-03-17T03:35:09.220Z,69.59
2023-03-17T03:37:36.586Z,70.38
2023-03-17T03:40:04.140Z,70.33
2023-03-17T03:42:30.949Z,71.11
2023-03-17T03:44:57.783Z,70.33
2023-03-17T03:47:24.646Z,69.99
2023-03-17T03:49:51.599Z,70.12
2023-03-17T03:52:18.364Z,70.72
2023-03-17T03:54:45.333Z,71.40
2023-03-17T03:57:12.253Z,71.38
2023-03-17T03:59:39.086Z,70.64
2023-03-17T04:02:09.395Z,70.37
2023-03-17T04:04:37.085Z,70.84
2023-03-17T04:07:03.924Z,70.74
2023-03-17T04:09:30.999Z,70.30
2023-03-17T04:11:57.792Z,70.66
2023-03-17T04:14:24.598Z,70.56
2023-03-17T04:16:51.358Z,71.26
2023-03-17T04:19:18.272Z,70.83
2023-03-17T04:21:45.133Z,70.35
2023-03-17T04:24:11.944Z,71.00
2023-03-17T04:26:39.380Z,71.66
2023-03-17T04:29:08.087Z,71.04
2023-03-17T04:31:36.212Z,69.84
2023-03-17T04:34:03.495Z,71.44
2023-03-17T04:36:30.154Z,71.78
2023-03-17T04:38:56.973Z,71.85
2023-03-17T04:41:23.949Z,72.36
2023-03-17T04:43:50.854Z,71.24
2023-03-17T04:46:17.630Z,71.56
2023-03-17T04:48:44.587Z,71.01
2023-03-17T04:51:11.987Z,71.37
2023-03-17T04:53:38.875Z,71.09
2023-03-17T04:56:06.075Z,71.65
2023-03-17T04:58:32.812Z,71.24
2023-03-17T05:00:59.664Z,71.09
2023-03-17T05:03:28.169Z,71.11
2023-03-17T05:05:55.603Z,71.42
2023-03-17T05:08:22.510Z,71.67
2023-03-17T05:10:49.296Z,71.50
2023-03-17T05:13:16.101Z,71.53
2023-03-17T05:15:50.505Z,71.95
2023-03-17T05:18:18.483Z,71.73
2023-03-17T05:20:45.274Z,71.42
2023-03-17T05:23:12.413Z,71.17
2023-03-17T05:25:40.601Z,72.09
2023-03-17T05:28:08.824Z,72.28
2023-03-17T05:30:39.047Z,72.17
2023-03-17T05:33:10.242Z,71.67
2023-03-17T05:35:37.023Z,72.61
2023-03-17T05:38:03.848Z,72.59
2023-03-17T05:40:30.818Z,72.97
2023-03-17T05:42:57.631Z,72.46
2023-03-17T05:45:24.795Z,72.94
2023-03-17T05:47:51.501Z,73.36
2023-03-17T05:50:18.657Z,73.31
2023-03-17T05:52:48.014Z,73.28
2023-03-17T05:55:15.988Z,73.54
2023-03-17T05:57:42.651Z,73.31
2023-03-17T06:00:12.797Z,72.73
2023-03-17T06:02:40.696Z,72.61
2023-03-17T06:05:08.956Z,72.45
2023-03-17T06:07:50.843Z,72.33
2023-03-17T06:10:20.191Z,71.29
2023-03-17T06:12:47.382Z,71.30
2023-03-17T06:15:14.472Z,70.96
2023-03-17T06:17:41.744Z,70.36
2023-03-17T06:20:09.177Z,70.09
2023-03-17T06:22:37.403Z,69.80
2023-03-17T06:25:05.023Z,69.56
2023-03-17T06:27:32.489Z,69.92
2023-03-17T06:30:00.351Z,68.74
2023-03-17T06:32:27.840Z,68.67
2023-03-17T06:34:55.127Z,70.11
2023-03-17T06:37:22.057Z,69.75
2023-03-17T06:39:48.870Z,69.98
2023-03-17T06:42:15.771Z,70.54
2023-03-17T06:44:42.487Z,70.39
2023-03-17T06:47:09.281Z,69.85
2023-03-17T06:49:36.041Z,69.02
2023-03-17T06:52:02.963Z,69.35
2023-03-17T06:54:29.836Z,69.29
2023-03-17T06:56:56.580Z,67.89
2023-03-17T06:59:23.921Z,68.79
2023-03-17T07:01:51.918Z,67.70
2023-03-17T07:04:19.746Z,67.62
2023-03-17T07:06:46.549Z,67.79
2023-03-17T07:09:13.381Z,67.01
2023-03-17T07:11:40.281Z,66.38
2023-03-17T07:14:07.908Z,66.39
2023-03-17T07:16:34.733Z,66.60
2023-03-17T07:19:02.170Z,66.62
2023-03-17T07:21:28.884Z,65.42
2023-03-17T07:23:55.764Z,65.93
2023-03-17T07:26:22.648Z,64.32
2023-03-17T07:28:49.484Z,63.88
2023-03-17T07:31:16.236Z,64.20
2023-03-17T07:33:43.566Z,63.21
2023-03-17T07:36:10.733Z,62.77
2023-03-17T07:38:37.663Z,63.09
2023-03-17T07:41:05.445Z,62.12
2023-03-17T07:43:32.155Z,61.29
2023-03-17T07:45:59.178Z,61.86
2023-03-17T07:48:26.167Z,63.47
2023-03-17T07:50:52.918Z,62.64
2023-03-17T07:53:19.737Z,63.18
2023-03-17T07:55:46.426Z,62.82
2023-03-17T07:58:15.686Z,63.37
2023-03-17T08:00:42.758Z,61.76
2023-03-17T08:03:11.026Z,62.76
2023-03-17T08:05:38.082Z,62.62
2023-03-17T08:08:06.749Z,62.52
2023-03-17T08:10:34.111Z,62.00
2023-03-17T08:13:01.297Z,58.54
2023-03-17T08:15:28.102Z,61.55
2023-03-17T08:17:54.885Z,61.23
2023-03-17T08:20:21.961Z,54.86
2023-03-17T08:22:48.661Z,53.26
2023-03-17T08:25:15.513Z,56.59
2023-03-17T08:27:42.663Z,57.78
2023-03-17T08:30:10.140Z,56.94
2023-03-17T08:32:37.013Z,56.35
2023-03-17T08:35:06.417Z,55.72
2023-03-17T08:37:33.402Z,54.25
2023-03-17T08:40:01.189Z,53.73
2023-03-17T08:42:27.949Z,54.92
2023-03-17T08:44:54.704Z,54.79
2023-03-17T08:47:21.841Z,54.10
2023-03-17T08:49:48.562Z,49.72
2023-03-17T08:52:16.301Z,47.87
2023-03-17T08:54:43.308Z,48.47
2023-03-17T08:57:15.615Z,48.52
2023-03-17T08:59:43.293Z,49.35
2023-03-17T09:02:12.669Z,49.49
2023-03-17T09:04:40.318Z,50.08
2023-03-17T09:07:09.676Z,48.08
2023-03-17T09:09:39.728Z,47.91
2023-03-17T09:12:07.250Z,49.16
2023-03-17T09:14:42.841Z,48.67
2023-03-17T09:17:11.287Z,50.27
2023-03-17T09:19:38.800Z,50.67
2023-03-17T09:22:05.702Z,50.40
2023-03-17T09:24:32.473Z,49.75
2023-03-17T09:27:01.361Z,49.89
2023-03-17T09:29:28.130Z,48.00
2023-03-17T09:31:56.566Z,49.51
2023-03-17T09:34:25.159Z,48.02
2023-03-17T09:36:54.207Z,49.71
2023-03-17T09:39:23.133Z,48.71
2023-03-17T09:42:12.385Z,46.24
2023-03-17T09:45:01.741Z,48.90
2023-03-17T09:47:47.614Z,46.87
2023-03-17T09:50:22.703Z,46.22
2023-03-17T09:52:52.188Z,44.94
2023-03-17T09:55:31.334Z,45.29
2023-03-17T09:58:01.619Z,45.59
2023-03-17T10:00:31.314Z,45.82
2023-03-17T10:02:59.025Z,46.62
2023-03-17T10:05:35.840Z,43.08
2023-03-17T10:08:31.209Z,42.12
2023-03-17T10:11:02.158Z,43.04
2023-03-17T10:13:48.402Z,43.46
2023-03-17T10:16:54.065Z,43.14
2023-03-17T10:19:46.047Z,41.95
2023-03-17T10:22:19.774Z,42.69
2023-03-17T10:24:52.938Z,43.63
2023-03-17T10:27:19.796Z,46.28
2023-03-17T10:29:48.565Z,45.47
2023-03-17T10:32:16.207Z,47.70
2023-03-17T10:34:43.820Z,44.46
2023-03-17T10:37:18.029Z,46.04
2023-03-17T10:39:51.879Z,45.14
2023-03-17T10:42:26.334Z,45.00
2023-03-17T10:45:17.584Z,45.79
2023-03-17T10:47:48.279Z,45.49
2023-03-17T10:50:15.501Z,45.74
2023-03-17T10:52:43.148Z,46.00
2023-03-17T10:55:14.760Z,44.78
2023-03-17T10:57:52.731Z,47.49
2023-03-17T11:00:22.187Z,45.07
2023-03-17T11:03:18.474Z,43.69
2023-03-17T11:05:57.676Z,44.20
2023-03-17T11:08:24.959Z,42.63
2023-03-17T11:10:56.712Z,43.20
2023-03-17T11:13:29.538Z,43.13
2023-03-17T11:16:23.576Z,41.58
2023-03-17T11:18:58.341Z,42.87
2023-03-17T11:21:32.407Z,39.84
2023-03-17T11:24:17.735Z,39.82
2023-03-17T11:26:55.294Z,42.87
2023-03-17T11:30:01.670Z,43.25
2023-03-17T11:32:36.976Z,43.13
2023-03-17T11:35:14.154Z,42.29
2023-03-17T11:37:46.572Z,41.36
2023-03-17T11:40:34.818Z,40.79
2023-03-17T11:43:35.376Z,39.20
2023-03-17T11:46:02.425Z,41.14
2023-03-17T11:48:35.086Z,39.66
2023-03-17T11:51:43.354Z,38.39
2023-03-17T11:54:19.254Z,38.71
2023-03-17T11:56:54.271Z,40.23
2023-03-17T11:59:27.163Z,38.50
2023-03-17T12:02:01.536Z,37.73
2023-03-17T12:04:37.950Z,37.96
2023-03-17T12:07:20.717Z,38.22
2023-03-17T12:10:34.883Z,40.30
2023-03-17T12:13:18.027Z,38.04
2023-03-17T12:15:57.290Z,37.20
2023-03-17T12:18:24.031Z,37.08
2023-03-17T12:20:50.676Z,39.35
2023-03-17T12:23:33.164Z,36.03
2023-03-17T12:26:06.966Z,38.07
2023-03-17T12:28:42.493Z,37.80
2023-03-17T12:31:19.768Z,37.00
2023-03-17T12:33:58.877Z,37.84
2023-03-17T12:36:27.084Z,37.47
2023-03-17T12:39:44.172Z,37.54
2023-03-17T12:42:32.026Z,36.89
2023-03-17T12:45:30.408Z,37.22
2023-03-17T12:48:26.586Z,38.24
2023-03-17T12:51:08.481Z,35.06
2023-03-17T12:53:45.070Z,35.90
2023-03-17T12:56:31.503Z,36.07
2023-03-17T12:59:08.802Z,37.65
2023-03-17T13:01:46.470Z,38.27
2023-03-17T13:04:20.806Z,36.49
2023-03-17T13:07:31.352Z,36.29
2023-03-17T13:10:01.121Z,36.15
2023-03-17T13:12:40.120Z,35.99
2023-03-17T13:15:26.806Z,36.20
2023-03-17T13:18:16.632Z,35.97
2023-03-17T13:20:51.868Z,38.76
2023-03-17T13:23:23.696Z,38.55
2023-03-17T13:25:53.844Z,36.97
2023-03-17T13:28:25.994Z,35.72
2023-03-17T13:30:57.331Z,38.06
2023-03-17T13:33:31.490Z,36.56
2023-03-17T13:36:19.386Z,37.51
2023-03-17T13:39:04.870Z,36.56
2023-03-17T13:41:44.428Z,34.17
2023-03-17T13:44:16.058Z,37.14
2023-03-17T13:46:47.462Z,38.61
2023-03-17T13:49:23.026Z,37.18
2023-03-17T13:52:11.656Z,38.24
2023-03-17T13:54:47.697Z,38.05
2023-03-17T13:57:23.559Z,37.67
2023-03-17T14:00:00.926Z,39.47
2023-03-17T14:02:32.031Z,38.55
2023-03-17T14:05:06.358Z,38.67
2023-03-17T14:08:08.866Z,37.82
2023-03-17T14:10:36.375Z,39.31
2023-03-17T14:13:20.609Z,39.47
2023-03-17T14:15:56.990Z,39.39
2023-03-17T14:18:34.507Z,39.37
2023-03-17T14:21:09.458Z,40.09
2023-03-17T14:23:37.949Z,40.86
2023-03-17T14:26:05.129Z,40.31
2023-03-17T14:28:34.691Z,40.96
2023-03-17T14:31:03.640Z,39.18
2023-03-17T14:33:36.832Z,40.95
2023-03-17T14:36:08.350Z,41.29
2023-03-17T14:38:37.477Z,41.96
2023-03-17T14:41:19.714Z,38.29
2023-03-17T14:43:47.907Z,39.61
2023-03-17T14:46:27.864Z,41.40
2023-03-17T14:48:59.162Z,42.15
2023-03-17T14:51:36.628Z,43.05
2023-03-17T14:54:31.267Z,43.52
2023-03-17T14:57:03.344Z,43.60
2023-03-17T14:59:36.293Z,43.76
2023-03-17T15:02:27.966Z,44.55
2023-03-17T15:05:02.163Z,42.52
2023-03-17T15:07:37.426Z,43.47
2023-03-17T15:10:05.214Z,44.90
2023-03-17T15:12:32.345Z,43.84
2023-03-17T15:15:05.002Z,44.04
2023-03-17T15:17:37.199Z,43.59
2023-03-17T15:20:11.926Z,45.67
2023-03-17T15:22:38.594Z,44.22
2023-03-17T15:25:20.272Z,46.02
2023-03-17T15:27:47.957Z,46.69
2023-03-17T15:30:15.947Z,46.57
2023-03-17T15:32:43.217Z,45.18
2023-03-17T15:35:14.280Z,46.73
2023-03-17T15:37:43.980Z,49.26
2023-03-17T15:40:11.618Z,48.84
2023-03-17T15:42:39.628Z,46.38
2023-03-17T15:45:07.203Z,45.69
2023-03-17T15:47:37.114Z,44.49
2023-03-17T15:50:26.203Z,44.98
2023-03-17T15:52:56.428Z,44.95
2023-03-17T15:55:32.092Z,44.74
2023-03-17T15:57:59.302Z,44.52
2023-03-17T16:00:29.722Z,42.11
2023-03-17T16:03:00.067Z,40.33
2023-03-17T16:05:36.596Z,42.56
2023-03-17T16:08:03.550Z,42.04
2023-03-17T16:10:32.692Z,43.75
2023-03-17T16:12:59.813Z,43.57
2023-03-17T16:15:29.092Z,43.66
2023-03-17T16:17:59.333Z,41.93
2023-03-17T16:20:32.349Z,44.38
2023-03-17T16:23:06.404Z,45.06
2023-03-17T16:25:33.651Z,43.62
2023-03-17T16:28:03.102Z,42.88
2023-03-17T16:30:32.710Z,43.37
2023-03-17T16:33:02.423Z,43.73
2023-03-17T16:35:29.852Z,43.10
2023-03-17T16:37:56.613Z,43.88
2023-03-17T16:40:28.909Z,44.05
2023-03-17T16:42:55.832Z,44.60
2023-03-17T16:45:32.947Z,44.72
2023-03-17T16:48:01.960Z,44.47
2023-03-17T16:50:31.410Z,44.02
2023-03-17T16:52:59.184Z,45.57
2023-03-17T16:55:28.824Z,44.80
2023-03-17T16:57:59.428Z,44.69
2023-03-17T17:00:30.207Z,46.00
2023-03-17T17:02:57.574Z,47.53
2023-03-17T17:05:27.002Z,48.10
2023-03-17T17:07:56.215Z,49.65
2023-03-17T17:10:24.949Z,50.61
2023-03-17T17:12:52.288Z,51.58
2023-03-17T17:15:21.296Z,51.92
2023-03-17T17:17:52.012Z,53.02
2023-03-17T17:20:23.336Z,54.32
2023-03-17T17:22:50.772Z,54.37
2023-03-17T17:25:18.071Z,54.53
2023-03-17T17:27:46.731Z,55.09
2023-03-17T17:30:17.041Z,55.69
2023-03-17T17:32:45.336Z,56.48
2023-03-17T17:35:13.340Z,54.28
2023-03-17T17:37:40.547Z,55.27
2023-03-17T17:40:08.775Z,55.58
2023-03-17T17:42:35.877Z,56.01
2023-03-17T17:45:02.712Z,55.43
2023-03-17T17:47:32.186Z,55.79
2023-03-17T17:50:00.226Z,54.87
2023-03-17T17:52:27.168Z,55.23
2023-03-17T17:54:53.900Z,55.44
2023-03-17T17:57:20.835Z,55.26
2023-03-17T17:59:47.813Z,55.65
2023-03-17T18:02:14.838Z,55.77
2023-03-17T18:04:41.692Z,55.70
2023-03-17T18:07:08.778Z,55.71
2023-03-17T18:09:35.762Z,55.58
2023-03-17T18:12:03.045Z,55.41
2023-03-17T18:14:29.798Z,54.62
2023-03-17T18:16:56.669Z,54.23
2023-03-17T18:19:23.484Z,54.79
2023-03-17T18:21:50.435Z,55.72
2023-03-17T18:24:17.548Z,57.81
2023-03-17T18:26:44.420Z,58.01
2023-03-17T18:29:12.273Z,58.10
2023-03-17T18:31:43.282Z,57.89
2023-03-17T18:34:22.031Z,55.67
2023-03-17T18:36:50.031Z,55.99
2023-03-17T18:39:16.965Z,55.59
2023-03-17T18:41:44.838Z,56.90
2023-03-17T18:44:11.952Z,57.05
2023-03-17T18:46:38.971Z,54.67
2023-03-17T18:49:09.277Z,55.18
2023-03-17T18:51:36.534Z,55.60
2023-03-17T18:54:05.832Z,54.46
2023-03-17T18:56:33.040Z,54.83
2023-03-17T18:59:00.809Z,54.07
2023-03-17T19:01:28.086Z,55.09
2023-03-17T19:03:55.005Z,55.12
2023-03-17T19:06:22.981Z,55.89
2023-03-17T19:08:50.624Z,55.02
2023-03-17T19:11:21.385Z,55.26
2023-03-17T19:13:48.990Z,55.21
2023-03-17T19:16:16.845Z,56.02
2023-03-17T19:18:43.735Z,55.39
2023-03-17T19:21:11.521Z,55.74
2023-03-17T19:23:39.144Z,56.29
2023-03-17T19:26:06.341Z,55.92
2023-03-17T19:28:33.391Z,55.87
2023-03-17T19:31:00.649Z,54.92
2023-03-17T19:33:29.011Z,54.58
2023-03-17T19:35:57.254Z,55.79
2023-03-17T19:38:24.606Z,56.82
2023-03-17T19:40:51.829Z,56.47
2023-03-17T19:43:33.425Z,56.40
2023-03-17T19:46:06.354Z,56.45
2023-03-17T19:48:33.742Z,57.47
2023-03-17T19:51:01.511Z,56.59
2023-03-17T19:53:28.268Z,54.10
2023-03-17T19:55:56.721Z,54.16
2023-03-17T19:58:23.951Z,53.02
2023-03-17T20:00:51.565Z,52.61
2023-03-17T20:03:18.902Z,52.74
2023-03-17T20:05:46.678Z,52.65
2023-03-17T20:08:14.771Z,52.73
2023-03-17T20:10:41.740Z,52.92
2023-03-17T20:13:09.290Z,53.29
2023-03-17T20:15:36.827Z,54.82
2023-03-17T20:18:03.950Z,56.58
2023-03-17T20:20:31.423Z,53.99
2023-03-17T20:22:58.395Z,54.21
2023-03-17T20:25:25.674Z,54.40
2023-03-17T20:27:53.457Z,54.62
2023-03-17T20:30:20.631Z,54.52
2023-03-17T20:32:47.474Z,54.25
2023-03-17T20:35:14.606Z,56.46
2023-03-17T20:37:41.364Z,57.66
2023-03-17T20:40:10.765Z,55.71
2023-03-17T20:42:37.844Z,56.51
2023-03-17T20:45:05.717Z,56.04
2023-03-17T20:47:32.623Z,56.84
2023-03-17T20:50:00.205Z,57.09
2023-03-17T20:52:29.987Z,56.53
2023-03-17T20:54:59.523Z,56.49
2023-03-17T20:57:26.467Z,57.39
2023-03-17T20:59:53.323Z,56.48
2023-03-17T21:02:20.882Z,55.85
2023-03-17T21:04:49.018Z,56.58
2023-03-17T21:07:18.288Z,55.87
2023-03-17T21:09:46.793Z,56.01
2023-03-17T21:12:19.815Z,56.63
2023-03-17T21:14:48.359Z,56.09
2023-03-17T21:17:18.155Z,56.58
2023-03-17T21:19:45.786Z,56.75
2023-03-17T21:22:12.680Z,58.79
2023-03-17T21:24:40.068Z,57.30
2023-03-17T21:27:11.403Z,57.68
2023-03-17T21:29:39.791Z,57.33
2023-03-17T21:32:08.548Z,58.06
2023-03-17T21:34:38.933Z,58.26
2023-03-17T21:37:06.192Z,58.98
2023-03-17T21:39:33.069Z,58.43
2023-03-17T21:42:01.408Z,58.84
2023-03-17T21:44:28.632Z,58.93
2023-03-17T21:46:56.622Z,59.84
2023-03-17T21:49:24.876Z,58.37
2023-03-17T21:51:51.977Z,58.39
2023-03-17T21:54:19.507Z,57.47
2023-03-17T21:56:47.701Z,58.77
2023-03-17T21:59:15.602Z,59.39
2023-03-17T22:01:43.824Z,60.72
2023-03-17T22:04:11.471Z,59.79
2023-03-17T22:06:38.328Z,60.65
2023-03-17T22:09:05.683Z,59.72
2023-03-17T22:11:32.498Z,60.05
2023-03-17T22:13:59.566Z,61.68
2023-03-17T22:16:26.627Z,60.88
2023-03-17T22:18:53.678Z,61.48
2023-03-17T22:21:21.639Z,61.62
2023-03-17T22:23:48.487Z,62.99
2023-03-17T22:26:20.010Z,63.62
2023-03-17T22:28:48.416Z,63.60
2023-03-17T22:31:24.319Z,63.30
2023-03-17T22:33:55.282Z,63.04
2023-03-17T22:36:23.642Z,63.46
2023-03-17T22:38:50.791Z,62.59
2023-03-17T22:41:20.016Z,63.73
2023-03-17T22:43:47.147Z,64.99
2023-03-17T22:46:14.930Z,63.21
2023-03-17T22:48:42.382Z,62.78
2023-03-17T22:51:18.101Z,63.70
2023-03-17T22:53:45.604Z,64.05
2023-03-17T22:56:13.936Z,64.11
2023-03-17T22:58:41.096Z,63.22
2023-03-17T23:01:09.407Z,63.36
2023-03-17T23:03:36.510Z,62.57
2023-03-17T23:06:04.909Z,63.57
2023-03-17T23:08:35.443Z,63.61
2023-03-17T23:11:06.269Z,64.47
2023-03-17T23:13:34.015Z,64.32
2023-03-17T23:16:00.886Z,63.54
2023-03-17T23:18:27.873Z,65.03
2023-03-17T23:20:55.082Z,64.57
2023-03-17T23:23:21.955Z,64.53
2023-03-17T23:25:48.869Z,65.09
2023-03-17T23:28:16.084Z,65.94
2023-03-17T23:30:43.998Z,66.53
2023-03-17T23:33:10.905Z,65.94
2023-03-17T23:35:38.137Z,66.07
2023-03-17T23:38:05.202Z,66.06
2023-03-17T23:40:32.737Z,65.93
2023-03-17T23:42:59.998Z,66.03
2023-03-17T23:45:26.847Z,65.78
2023-03-17T23:47:55.316Z,65.79
2023-03-17T23:50:22.151Z,66.38
2023-03-17T23:52:49.409Z,66.11
2023-03-17T23:55:17.017Z,66.51
2023-03-17T23:57:44.852Z,66.84
